createdAt,value
2018-09-11T00:00:27.864Z,16.38
2018-09-11T00:01:27.896Z,16.34
2018-09-11T00:02:27.931Z,16.38
2018-09-11T00:03:27.964Z,16.41
2018-09-11T00:04:27.999Z,16.33
2018-09-11T00:05:28.031Z,16.43
2018-09-11T00:06:28.064Z,16.41
2018-09-11T00:07:28.097Z,16.42
2018-09-11T00:08:28.133Z,16.33
2018-09-11T00:09:28.164Z,16.42
2018-09-11T00:10:28.199Z,16.41
2018-09-11T00:11:28.233Z,16.33
2018-09-11T00:12:28.268Z,16.33
2018-09-11T00:13:28.299Z,16.28
2018-09-11T00:14:28.332Z,16.39
2018-09-11T00:15:28.368Z,16.28
2018-09-11T00:16:28.400Z,16.31
2018-09-11T00:17:28.433Z,16.28
2018-09-11T00:18:28.468Z,16.28
2018-09-11T00:19:28.502Z,16.17
2018-09-11T00:20:28.535Z,16.14
2018-09-11T00:21:28.567Z,16.09
2018-09-11T00:22:28.601Z,16.08
2018-09-11T00:23:28.635Z,16.11
2018-09-11T00:24:28.669Z,16.02
2018-09-11T00:25:28.702Z,15.92
2018-09-11T00:26:28.736Z,15.90
2018-09-11T00:27:28.768Z,15.87
2018-09-11T00:28:28.803Z,15.83
2018-09-11T00:29:28.835Z,15.89
2018-09-11T00:30:28.869Z,15.86
2018-09-11T00:31:28.903Z,16.00
2018-09-11T00:32:28.937Z,15.97
2018-09-11T00:33:28.968Z,15.87
2018-09-11T00:34:29.004Z,15.96
2018-09-11T00:35:29.036Z,15.80
2018-09-11T00:36:29.071Z,15.74
2018-09-11T00:37:29.124Z,15.62
2018-09-11T00:38:29.140Z,15.68
2018-09-11T00:39:29.171Z,15.72
2018-09-11T00:40:29.204Z,15.86
2018-09-11T00:41:29.236Z,15.87
2018-09-11T00:42:29.270Z,15.96
2018-09-11T00:43:29.304Z,15.96
2018-09-11T00:44:29.337Z,16.14
2018-09-11T00:45:29.370Z,16.08
2018-09-11T00:46:29.403Z,16.07
2018-09-11T00:47:29.437Z,16.12
2018-09-11T00:48:29.469Z,16.15
2018-09-11T00:49:29.502Z,16.09
2018-09-11T00:50:29.538Z,16.09
2018-09-11T00:51:29.569Z,16.08
2018-09-11T00:52:29.603Z,16.09
2018-09-11T00:53:29.636Z,16.09
2018-09-11T00:54:29.673Z,16.04
2018-09-11T00:55:29.704Z,16.09
2018-09-11T00:56:29.737Z,16.04
2018-09-11T00:57:29.768Z,16.08
2018-09-11T00:58:29.803Z,16.11
2018-09-11T00:59:29.837Z,15.93
2018-09-11T01:00:29.872Z,16.07
2018-09-11T01:01:29.904Z,16.08
2018-09-11T01:02:29.936Z,15.97
2018-09-11T01:03:29.970Z,15.94
2018-09-11T01:04:30.003Z,16.11
2018-09-11T01:05:30.037Z,16.17
2018-09-11T01:06:30.069Z,16.15
2018-09-11T01:07:30.104Z,16.09
2018-09-11T01:08:30.136Z,16.12
2018-09-11T01:09:30.174Z,16.09
2018-09-11T01:10:30.204Z,16.14
2018-09-11T01:11:30.239Z,16.08
2018-09-11T01:12:30.269Z,16.12
2018-09-11T01:13:30.302Z,16.17
2018-09-11T01:14:30.334Z,16.07
2018-09-11T01:15:30.368Z,16.07
2018-09-11T01:16:30.402Z,16.09
2018-09-11T01:17:30.434Z,15.94
2018-09-11T01:18:30.467Z,16.07
2018-09-11T01:19:30.501Z,15.97
2018-09-11T01:20:30.535Z,15.97
2018-09-11T01:21:30.567Z,15.90
2018-09-11T01:22:30.601Z,15.96
2018-09-11T01:23:30.634Z,15.96
2018-09-11T01:24:30.666Z,15.87
2018-09-11T01:25:30.700Z,15.94
2018-09-11T01:26:30.735Z,15.86
2018-09-11T01:27:30.767Z,15.83
2018-09-11T01:28:30.801Z,15.86
2018-09-11T01:29:30.834Z,15.89
2018-09-11T01:30:30.865Z,15.90
2018-09-11T01:31:30.899Z,15.75
2018-09-11T01:32:30.932Z,15.71
2018-09-11T01:33:30.964Z,15.71
2018-09-11T01:34:30.998Z,15.74
2018-09-11T01:35:31.032Z,15.71
2018-09-11T01:36:31.064Z,15.69
2018-09-11T01:37:31.097Z,15.76
2018-09-11T01:38:31.131Z,15.74
2018-09-11T01:39:31.166Z,15.67
2018-09-11T01:40:31.198Z,15.56
2018-09-11T01:41:31.229Z,15.62
2018-09-11T01:42:31.262Z,15.59
2018-09-11T01:43:31.297Z,15.62
2018-09-11T01:44:31.329Z,15.53
2018-09-11T01:45:31.361Z,15.60
2018-09-11T01:46:31.396Z,15.49
2018-09-11T01:47:31.428Z,15.41
2018-09-11T01:48:31.463Z,15.46
2018-09-11T01:49:31.496Z,15.35
2018-09-11T01:50:31.528Z,15.23
2018-09-11T01:51:31.561Z,15.36
2018-09-11T01:52:31.594Z,15.44
2018-09-11T01:53:31.628Z,15.35
2018-09-11T01:54:31.659Z,15.39
2018-09-11T01:55:31.693Z,15.39
2018-09-11T01:56:31.729Z,15.39
2018-09-11T01:57:31.758Z,15.47
2018-09-11T01:58:31.793Z,15.53
2018-09-11T01:59:31.825Z,15.43
2018-09-11T02:00:31.858Z,15.53
2018-09-11T02:01:31.890Z,15.53
2018-09-11T02:02:31.922Z,15.53
2018-09-11T02:03:31.958Z,15.59
2018-09-11T02:04:31.990Z,15.60
2018-09-11T02:05:32.023Z,15.62
2018-09-11T02:06:32.056Z,15.67
2018-09-11T02:07:32.089Z,15.64
2018-09-11T02:08:32.126Z,15.54
2018-09-11T02:09:32.155Z,15.57
2018-09-11T02:10:32.187Z,15.56
2018-09-11T02:11:32.222Z,15.59
2018-09-11T02:12:32.253Z,15.65
2018-09-11T02:13:32.285Z,15.60
2018-09-11T02:14:32.320Z,15.67
2018-09-11T02:15:32.352Z,15.59
2018-09-11T02:16:32.386Z,15.60
2018-09-11T02:17:32.420Z,15.57
2018-09-11T02:18:32.453Z,15.59
2018-09-11T02:19:32.483Z,15.56
2018-09-11T02:20:32.517Z,15.64
2018-09-11T02:21:32.548Z,15.69
2018-09-11T02:22:32.581Z,15.71
2018-09-11T02:23:32.616Z,15.68
2018-09-11T02:24:32.648Z,15.62
2018-09-11T02:25:32.686Z,15.62
2018-09-11T02:26:32.713Z,15.60
2018-09-11T02:27:32.746Z,15.65
2018-09-11T02:28:32.789Z,15.62
2018-09-11T02:29:32.814Z,15.65
2018-09-11T02:30:32.845Z,15.57
2018-09-11T02:31:32.877Z,15.59
2018-09-11T02:32:32.911Z,15.57
2018-09-11T02:33:32.943Z,15.60
2018-09-11T02:34:32.976Z,15.59
2018-09-11T02:35:33.035Z,15.50
2018-09-11T02:36:33.043Z,15.47
2018-09-11T02:37:33.095Z,15.35
2018-09-11T02:38:41.021Z,15.41
2018-09-11T02:39:33.163Z,15.25
2018-09-11T02:40:33.174Z,15.28
2018-09-11T02:41:33.207Z,15.36
2018-09-11T02:42:33.240Z,15.28
2018-09-11T02:43:33.273Z,15.38
2018-09-11T02:44:33.305Z,15.38
2018-09-11T02:45:33.337Z,15.39
2018-09-11T02:46:33.370Z,15.39
2018-09-11T02:47:33.404Z,15.39
2018-09-11T02:48:33.437Z,15.53
2018-09-11T02:49:33.468Z,15.50
2018-09-11T02:50:33.503Z,15.54
2018-09-11T02:51:33.539Z,15.50
2018-09-11T02:52:33.567Z,15.47
2018-09-11T02:53:33.599Z,15.43
2018-09-11T02:54:33.631Z,15.27
2018-09-11T02:55:33.665Z,15.14
2018-09-11T02:56:33.698Z,14.91
2018-09-11T02:57:33.729Z,14.89
2018-09-11T02:58:33.761Z,14.73
2018-09-11T02:59:33.796Z,14.69
2018-09-11T03:00:33.828Z,14.45
2018-09-11T03:01:33.861Z,14.37
2018-09-11T03:02:33.893Z,14.37
2018-09-11T03:03:33.926Z,14.37
2018-09-11T03:04:33.960Z,14.50
2018-09-11T03:05:33.994Z,14.60
2018-09-11T03:06:34.025Z,14.65
2018-09-11T03:07:34.057Z,14.65
2018-09-11T03:08:34.090Z,14.75
2018-09-11T03:09:34.195Z,14.81
2018-09-11T03:10:34.160Z,14.91
2018-09-11T03:11:34.190Z,14.88
2018-09-11T03:12:34.221Z,14.92
2018-09-11T03:13:34.253Z,14.89
2018-09-11T03:14:34.291Z,14.96
2018-09-11T03:15:34.319Z,14.99
2018-09-11T03:16:34.350Z,14.94
2018-09-11T03:17:34.390Z,14.86
2018-09-11T03:18:34.415Z,14.95
2018-09-11T03:19:34.449Z,14.94
2018-09-11T03:20:34.483Z,14.94
2018-09-11T03:21:34.514Z,14.84
2018-09-11T03:22:34.545Z,14.73
2018-09-11T03:23:34.580Z,14.88
2018-09-11T03:24:34.614Z,14.84
2018-09-11T03:25:34.644Z,14.77
2018-09-11T03:26:34.679Z,14.80
2018-09-11T03:27:34.712Z,14.80
2018-09-11T03:28:34.742Z,14.78
2018-09-11T03:29:34.776Z,14.77
2018-09-11T03:30:34.809Z,14.77
2018-09-11T03:31:34.841Z,14.80
2018-09-11T03:32:34.874Z,14.84
2018-09-11T03:33:34.908Z,14.86
2018-09-11T03:34:34.938Z,14.89
2018-09-11T03:35:34.971Z,14.88
2018-09-11T03:36:35.005Z,14.95
2018-09-11T03:37:35.035Z,14.91
2018-09-11T03:38:35.074Z,14.95
2018-09-11T03:39:35.103Z,14.83
2018-09-11T03:40:35.135Z,14.73
2018-09-11T03:41:35.166Z,14.73
2018-09-11T03:42:35.200Z,14.73
2018-09-11T03:43:35.233Z,14.64
2018-09-11T03:44:35.265Z,14.50
2018-09-11T03:45:35.298Z,14.43
2018-09-11T03:46:35.330Z,14.45
2018-09-11T03:47:35.362Z,14.24
2018-09-11T03:48:35.400Z,14.18
2018-09-11T03:49:35.428Z,14.17
2018-09-11T03:50:35.461Z,14.15
2018-09-11T03:51:35.493Z,14.18
2018-09-11T03:52:35.526Z,14.27
2018-09-11T03:53:35.560Z,14.20
2018-09-11T03:54:35.591Z,14.21
2018-09-11T03:55:35.628Z,14.09
2018-09-11T03:56:35.656Z,14.09
2018-09-11T03:57:35.689Z,14.10
2018-09-11T03:58:35.720Z,14.10
2018-09-11T03:59:35.752Z,14.04
2018-09-11T04:00:35.787Z,13.91
2018-09-11T04:01:35.817Z,13.97
2018-09-11T04:02:35.850Z,13.89
2018-09-11T04:03:35.894Z,13.82
2018-09-11T04:04:35.915Z,13.87
2018-09-11T04:05:36.109Z,13.75
2018-09-11T04:06:35.980Z,13.75
2018-09-11T04:07:36.012Z,13.85
2018-09-11T04:08:36.048Z,13.97
2018-09-11T04:09:36.078Z,14.03
2018-09-11T04:10:36.109Z,14.00
2018-09-11T04:11:36.141Z,14.09
2018-09-11T04:12:36.176Z,14.09
2018-09-11T04:13:36.205Z,14.28
2018-09-11T04:14:36.237Z,14.27
2018-09-11T04:15:36.270Z,14.32
2018-09-11T04:16:36.304Z,14.37
2018-09-11T04:17:36.334Z,14.43
2018-09-11T04:18:36.367Z,14.50
2018-09-11T04:19:36.399Z,14.45
2018-09-11T04:20:36.438Z,14.43
2018-09-11T04:21:36.463Z,14.42
2018-09-11T04:22:36.495Z,14.39
2018-09-11T04:23:36.528Z,14.42
2018-09-11T04:24:36.560Z,14.37
2018-09-11T04:25:36.670Z,14.46
2018-09-11T04:26:36.631Z,14.51
2018-09-11T04:27:36.657Z,14.52
2018-09-11T04:28:36.691Z,14.47
2018-09-11T04:29:36.720Z,14.62
2018-09-11T04:30:36.752Z,14.55
2018-09-11T04:31:36.786Z,14.51
2018-09-11T04:32:36.817Z,14.47
2018-09-11T04:33:36.849Z,14.46
2018-09-11T04:34:36.884Z,14.60
2018-09-11T04:35:36.913Z,14.51
2018-09-11T04:36:36.947Z,14.46
2018-09-11T04:37:36.977Z,14.37
2018-09-11T04:38:37.009Z,14.37
2018-09-11T04:39:37.042Z,14.29
2018-09-11T04:40:37.074Z,14.22
2018-09-11T04:41:37.106Z,14.18
2018-09-11T04:42:37.137Z,14.03
2018-09-11T04:43:37.172Z,14.15
2018-09-11T04:44:37.203Z,14.04
2018-09-11T04:45:37.234Z,14.03
2018-09-11T04:46:37.267Z,14.09
2018-09-11T04:47:37.298Z,14.28
2018-09-11T04:48:37.332Z,14.25
2018-09-11T04:49:37.363Z,14.28
2018-09-11T04:50:37.397Z,14.28
2018-09-11T04:51:37.431Z,14.37
2018-09-11T04:52:37.460Z,14.35
2018-09-11T04:53:37.491Z,14.39
2018-09-11T04:54:37.528Z,14.46
2018-09-11T04:55:37.555Z,14.39
2018-09-11T04:56:37.590Z,14.43
2018-09-11T04:57:37.620Z,14.45
2018-09-11T04:58:37.651Z,14.51
2018-09-11T04:59:37.684Z,14.47
2018-09-11T05:00:37.716Z,14.58
2018-09-11T05:01:37.748Z,14.61
2018-09-11T05:02:37.781Z,14.62
2018-09-11T05:03:37.812Z,14.62
2018-09-11T05:04:37.845Z,14.64
2018-09-11T05:05:37.876Z,14.60
2018-09-11T05:06:37.909Z,14.54
2018-09-11T05:07:37.941Z,14.55
2018-09-11T05:08:37.973Z,14.61
2018-09-11T05:09:38.005Z,14.68
2018-09-11T05:10:38.039Z,14.75
2018-09-11T05:11:38.072Z,14.61
2018-09-11T05:12:38.101Z,14.64
2018-09-11T05:13:38.135Z,14.62
2018-09-11T05:14:38.169Z,14.60
2018-09-11T05:15:38.199Z,14.60
2018-09-11T05:16:38.231Z,14.51
2018-09-11T05:17:38.262Z,14.50
2018-09-11T05:18:38.308Z,14.40
2018-09-11T05:19:38.327Z,14.40
2018-09-11T05:20:38.359Z,14.47
2018-09-11T05:21:38.393Z,14.51
2018-09-11T05:22:38.423Z,14.46
2018-09-11T05:23:38.455Z,14.46
2018-09-11T05:24:38.488Z,14.47
2018-09-11T05:25:38.520Z,14.47
2018-09-11T05:26:38.552Z,14.45
2018-09-11T05:27:38.585Z,14.50
2018-09-11T05:28:38.617Z,14.47
2018-09-11T05:29:38.647Z,14.37
2018-09-11T05:30:38.682Z,14.45
2018-09-11T05:31:38.714Z,14.54
2018-09-11T05:32:38.745Z,14.46
2018-09-11T05:33:38.807Z,14.60
2018-09-11T05:34:38.810Z,14.65
2018-09-11T05:35:38.842Z,14.72
2018-09-11T05:36:38.875Z,14.73
2018-09-11T05:37:38.907Z,14.95
2018-09-11T05:38:38.938Z,15.01
2018-09-11T05:39:38.973Z,14.96
2018-09-11T05:40:39.006Z,15.13
2018-09-11T05:41:39.036Z,15.17
2018-09-11T05:42:39.069Z,15.32
2018-09-11T05:43:39.102Z,15.38
2018-09-11T05:44:39.132Z,15.35
2018-09-11T05:45:39.368Z,15.36
2018-09-11T05:46:39.199Z,15.49
2018-09-11T05:47:39.230Z,15.47
2018-09-11T05:48:39.263Z,15.56
2018-09-11T05:49:39.298Z,15.68
2018-09-11T05:50:39.332Z,15.87
2018-09-11T05:51:39.360Z,15.82
2018-09-11T05:52:39.393Z,15.87
2018-09-11T05:53:39.426Z,16.02
2018-09-11T05:54:39.457Z,15.96
2018-09-11T05:55:39.490Z,16.07
2018-09-11T05:56:39.523Z,16.02
2018-09-11T05:57:39.555Z,16.08
2018-09-11T05:58:39.590Z,16.24
2018-09-11T05:59:39.621Z,16.15
2018-09-11T06:00:39.652Z,16.28
2018-09-11T06:01:39.691Z,16.31
2018-09-11T06:02:39.719Z,16.33
2018-09-11T06:03:39.751Z,16.28
2018-09-11T06:04:39.785Z,16.48
2018-09-11T06:05:39.901Z,16.38
2018-09-11T06:06:39.848Z,16.48
2018-09-11T06:07:39.883Z,16.39
2018-09-11T06:08:39.916Z,16.39
2018-09-11T06:09:39.948Z,16.41
2018-09-11T06:10:39.983Z,16.46
2018-09-11T06:11:40.034Z,16.50
2018-09-11T06:12:40.065Z,16.52
2018-09-11T06:13:40.082Z,16.56
2018-09-11T06:14:40.114Z,16.67
2018-09-11T06:15:40.146Z,16.58
2018-09-11T06:16:40.225Z,16.67
2018-09-11T06:17:40.214Z,16.67
2018-09-11T06:18:40.254Z,16.78
2018-09-11T06:19:40.280Z,16.71
2018-09-11T06:20:40.314Z,16.71
2018-09-11T06:21:40.347Z,16.83
2018-09-11T06:22:40.380Z,16.70
2018-09-11T06:23:40.416Z,16.81
2018-09-11T06:24:40.449Z,16.94
2018-09-11T06:25:40.541Z,16.85
2018-09-11T06:26:40.516Z,16.96
2018-09-11T06:27:40.548Z,16.94
2018-09-11T06:28:40.582Z,16.94
2018-09-11T06:29:40.622Z,17.03
2018-09-11T06:30:40.649Z,17.12
2018-09-11T06:31:40.682Z,17.12
2018-09-11T06:32:40.716Z,17.18
2018-09-11T06:33:40.749Z,17.23
2018-09-11T06:34:40.783Z,17.26
2018-09-11T06:35:40.816Z,17.37
2018-09-11T06:36:40.849Z,17.38
2018-09-11T06:37:40.883Z,17.48
2018-09-11T06:38:40.917Z,17.46
2018-09-11T06:39:40.952Z,17.41
2018-09-11T06:40:40.985Z,17.37
2018-09-11T06:41:41.017Z,17.54
2018-09-11T06:42:41.052Z,17.54
2018-09-11T06:43:41.085Z,17.54
2018-09-11T06:44:41.167Z,17.51
2018-09-11T06:45:41.153Z,17.72
2018-09-11T06:46:41.188Z,17.75
2018-09-11T06:47:41.222Z,17.77
2018-09-11T06:48:41.312Z,17.92
2018-09-11T06:49:41.290Z,17.97
2018-09-11T06:50:41.323Z,17.96
2018-09-11T06:51:41.357Z,18.03
2018-09-11T06:52:41.392Z,18.10
2018-09-11T06:53:41.426Z,18.11
2018-09-11T06:54:41.474Z,18.21
2018-09-11T06:55:41.499Z,18.32
2018-09-11T06:56:41.529Z,18.35
2018-09-11T06:57:41.563Z,18.36
2018-09-11T06:58:41.599Z,18.29
2018-09-11T06:59:41.631Z,18.39
2018-09-11T07:00:41.770Z,18.36
2018-09-11T07:01:41.701Z,18.45
2018-09-11T07:02:41.735Z,18.63
2018-09-11T07:03:41.769Z,18.66
2018-09-11T07:04:41.804Z,18.69
2018-09-11T07:05:41.843Z,18.76
2018-09-11T07:06:41.880Z,18.87
2018-09-11T07:07:41.906Z,18.98
2018-09-11T07:08:41.944Z,19.06
2018-09-11T07:09:41.976Z,19.08
2018-09-11T07:10:42.012Z,19.16
2018-09-11T07:11:42.045Z,19.07
2018-09-11T07:12:42.081Z,19.11
2018-09-11T07:13:42.115Z,19.28
2018-09-11T07:14:42.254Z,19.37
2018-09-11T07:15:42.186Z,19.32
2018-09-11T07:16:42.220Z,19.32
2018-09-11T07:17:42.255Z,19.40
2018-09-11T07:18:42.291Z,19.51
2018-09-11T07:19:42.439Z,19.46
2018-09-11T07:20:42.365Z,19.58
2018-09-11T07:21:42.418Z,19.65
2018-09-11T07:22:42.433Z,19.66
2018-09-11T07:23:42.467Z,19.74
2018-09-11T07:24:42.503Z,19.76
2018-09-11T07:25:42.539Z,19.74
2018-09-11T07:26:42.573Z,19.81
2018-09-11T07:27:42.609Z,19.80
2018-09-11T07:28:42.644Z,19.88
2018-09-11T07:29:42.679Z,19.96
2018-09-11T07:30:42.714Z,20.02
2018-09-11T07:31:42.754Z,20.11
2018-09-11T07:32:42.788Z,20.21
2018-09-11T07:33:42.827Z,20.35
2018-09-11T07:34:42.859Z,20.35
2018-09-11T07:35:42.894Z,20.38
2018-09-11T07:36:42.931Z,20.43
2018-09-11T07:37:42.981Z,20.61
2018-09-11T07:38:43.001Z,20.73
2018-09-11T07:39:43.042Z,20.82
2018-09-11T07:40:43.074Z,20.79
2018-09-11T07:41:43.109Z,20.79
2018-09-11T07:42:43.149Z,20.80
2018-09-11T07:43:43.183Z,20.87
2018-09-11T07:44:43.218Z,20.94
2018-09-11T07:45:43.254Z,20.99
2018-09-11T07:46:43.290Z,20.99
2018-09-11T07:47:43.330Z,21.12
2018-09-11T07:48:43.366Z,21.21
2018-09-11T07:49:43.399Z,21.25
2018-09-11T07:50:43.436Z,21.28
2018-09-11T07:51:43.472Z,21.38
2018-09-11T07:52:43.644Z,21.46
2018-09-11T07:53:43.545Z,21.64
2018-09-11T07:54:43.581Z,21.65
2018-09-11T07:55:43.618Z,21.74
2018-09-11T07:56:43.655Z,21.71
2018-09-11T07:57:43.859Z,21.82
2018-09-11T07:58:43.728Z,21.92
2018-09-11T07:59:43.764Z,22.00
2018-09-11T08:00:43.825Z,22.02
2018-09-11T08:01:43.838Z,22.21
2018-09-11T08:02:43.874Z,22.25
2018-09-11T08:03:43.912Z,22.42
2018-09-11T08:04:43.949Z,22.58
2018-09-11T08:05:43.985Z,22.70
2018-09-11T08:06:44.023Z,22.70
2018-09-11T08:07:44.060Z,22.79
2018-09-11T08:08:44.097Z,22.88
2018-09-11T08:09:44.134Z,22.94
2018-09-11T08:10:44.173Z,22.95
2018-09-11T08:11:44.212Z,22.98
2018-09-11T08:12:44.246Z,23.05
2018-09-11T08:13:44.283Z,23.23
2018-09-11T08:14:44.321Z,23.25
2018-09-11T08:15:44.359Z,23.32
2018-09-11T08:16:44.396Z,23.48
2018-09-11T08:17:44.433Z,23.61
2018-09-11T08:18:44.472Z,23.65
2018-09-11T08:19:44.533Z,23.83
2018-09-11T08:20:44.548Z,23.75
2018-09-11T08:21:44.585Z,23.73
2018-09-11T08:22:44.624Z,23.76
2018-09-11T08:23:44.662Z,23.84
2018-09-11T08:24:44.703Z,23.93
2018-09-11T08:25:44.738Z,24.13
2018-09-11T08:26:44.777Z,24.16
2018-09-11T08:27:44.819Z,24.25
2018-09-11T08:28:44.855Z,24.27
2018-09-11T08:29:44.892Z,24.42
2018-09-11T08:30:44.933Z,24.50
2018-09-11T08:31:44.970Z,24.58
2018-09-11T08:32:45.009Z,24.76
2018-09-11T08:33:45.054Z,24.65
2018-09-11T08:34:45.088Z,24.64
2018-09-11T08:35:45.126Z,24.81
2018-09-11T08:36:45.163Z,24.93
2018-09-11T08:37:45.205Z,25.09
2018-09-11T08:38:45.243Z,25.24
2018-09-11T08:39:45.282Z,25.09
2018-09-11T08:40:45.321Z,25.13
2018-09-11T08:41:45.360Z,25.24
2018-09-11T08:42:45.399Z,25.33
2018-09-11T08:43:45.439Z,25.43
2018-09-11T08:44:45.479Z,25.55
2018-09-11T08:45:45.517Z,25.54
2018-09-11T08:46:45.581Z,25.58
2018-09-11T08:47:45.597Z,25.46
2018-09-11T08:48:45.642Z,25.50
2018-09-11T08:49:45.678Z,25.45
2018-09-11T08:50:45.736Z,25.46
2018-09-11T08:51:45.754Z,25.40
2018-09-11T08:52:45.837Z,25.67
2018-09-11T08:53:45.837Z,25.91
2018-09-11T08:54:45.876Z,26.02
2018-09-11T08:55:45.915Z,26.13
2018-09-11T08:56:45.956Z,26.28
2018-09-11T08:57:45.993Z,26.15
2018-09-11T08:58:46.033Z,26.43
2018-09-11T08:59:46.075Z,26.89
2018-09-11T09:00:46.115Z,27.66
2018-09-11T09:01:46.155Z,28.58
2018-09-11T09:02:46.199Z,29.23
2018-09-11T09:03:46.237Z,30.23
2018-09-11T09:04:46.278Z,31.25
2018-09-11T09:05:46.321Z,32.11
2018-09-11T09:06:46.360Z,32.89
2018-09-11T09:07:46.402Z,33.79
2018-09-11T09:08:46.444Z,34.47
2018-09-11T09:09:46.485Z,34.50
2018-09-11T09:10:46.528Z,35.28
2018-09-11T09:11:46.571Z,34.88
2018-09-11T09:12:46.614Z,33.84
2018-09-11T09:13:46.660Z,34.00
2018-09-11T09:14:46.703Z,34.15
2018-09-11T09:15:48.152Z,34.72
2018-09-11T09:16:46.993Z,35.75
2018-09-11T09:17:46.837Z,35.06
2018-09-11T09:18:46.882Z,34.99
2018-09-11T09:19:46.926Z,35.52
2018-09-11T09:20:47.021Z,35.38
2018-09-11T09:21:47.028Z,35.65
2018-09-11T09:22:47.065Z,34.97
2018-09-11T09:23:47.112Z,35.26
2018-09-11T09:24:47.362Z,35.74
2018-09-11T09:25:47.204Z,36.49
2018-09-11T09:26:47.253Z,36.71
2018-09-11T09:27:47.299Z,37.03
2018-09-11T09:28:47.345Z,37.18
2018-09-11T09:29:47.396Z,36.66
2018-09-11T09:30:47.441Z,36.65
2018-09-11T09:31:47.488Z,36.46
2018-09-11T09:33:47.609Z,36.12
2018-09-11T09:34:47.633Z,35.92
2018-09-11T09:35:47.681Z,35.56
2018-09-11T09:36:47.795Z,36.16
2018-09-11T09:37:47.778Z,36.85
2018-09-11T09:38:47.827Z,37.25
2018-09-11T09:39:47.876Z,37.82
2018-09-11T09:40:47.925Z,37.85
2018-09-11T09:41:47.978Z,38.42
2018-09-11T09:42:48.024Z,38.91
2018-09-11T09:43:48.085Z,39.01
2018-09-11T09:44:48.123Z,38.06
2018-09-11T09:45:48.171Z,37.66
2018-09-11T09:46:48.221Z,37.59
2018-09-11T09:47:48.271Z,36.87
2018-09-11T09:48:48.322Z,37.07
2018-09-11T09:49:48.370Z,36.98
2018-09-11T09:52:48.525Z,37.47
2018-09-11T09:53:48.573Z,37.70
2018-09-11T09:54:48.623Z,38.35
2018-09-11T09:55:48.674Z,38.59
2018-09-11T09:57:48.776Z,39.07
2018-09-11T09:58:48.827Z,39.25
2018-09-11T09:59:48.878Z,39.41
2018-09-11T10:00:48.929Z,38.56
2018-09-11T10:01:48.981Z,39.32
2018-09-11T10:02:49.032Z,39.06
2018-09-11T10:03:49.085Z,39.94
2018-09-11T10:05:49.186Z,39.18
2018-09-11T10:06:49.237Z,39.54
2018-09-11T10:07:49.292Z,39.07
2018-09-11T10:08:49.343Z,39.64
2018-09-11T10:09:49.394Z,40.19
2018-09-11T10:10:49.447Z,40.41
2018-09-11T10:11:49.505Z,40.45
2018-09-11T10:12:49.557Z,40.08
2018-09-11T10:13:49.605Z,39.62
2018-09-11T10:14:49.657Z,39.40
2018-09-11T10:15:49.708Z,39.25
2018-09-11T10:16:49.763Z,39.17
2018-09-11T10:17:49.813Z,39.66
2018-09-11T10:18:49.865Z,39.54
2018-09-11T10:19:49.918Z,40.48
2018-09-11T10:20:49.972Z,40.64
2018-09-11T10:21:50.025Z,40.57
2018-09-11T10:22:50.076Z,39.92
2018-09-11T10:23:50.130Z,40.27
2018-09-11T10:24:50.184Z,40.19
2018-09-11T10:25:50.237Z,40.34
2018-09-11T10:26:50.289Z,40.42
2018-09-11T10:27:50.342Z,40.96
2018-09-11T10:28:50.396Z,40.32
2018-09-11T10:29:50.450Z,40.99
2018-09-11T10:30:50.502Z,41.52
2018-09-11T10:31:50.555Z,41.62
2018-09-11T10:32:50.610Z,40.98
2018-09-11T10:33:50.687Z,40.95
2018-09-11T10:34:50.716Z,41.20
2018-09-11T10:35:50.770Z,41.58
2018-09-11T10:36:50.824Z,40.82
2018-09-11T10:37:50.876Z,40.89
2018-09-11T10:38:50.930Z,41.07
2018-09-11T10:39:50.985Z,41.51
2018-09-11T10:40:51.039Z,42.06
2018-09-11T10:41:51.112Z,42.50
2018-09-11T10:42:51.168Z,42.30
2018-09-11T10:43:51.224Z,41.49
2018-09-11T10:44:51.258Z,40.45
2018-09-11T10:45:51.308Z,41.45
2018-09-11T10:46:51.366Z,41.52
2018-09-11T10:47:51.416Z,40.92
2018-09-11T10:48:51.513Z,40.61
2018-09-11T10:49:51.525Z,40.72
2018-09-11T10:50:51.581Z,41.13
2018-09-11T10:51:51.676Z,40.98
2018-09-11T10:52:51.712Z,41.35
2018-09-11T10:53:51.743Z,41.36
2018-09-11T10:54:51.798Z,42.01
2018-09-11T10:55:51.852Z,42.02
2018-09-11T10:56:51.911Z,42.05
2018-09-11T10:57:51.960Z,42.08
2018-09-11T10:58:52.016Z,42.20
2018-09-11T10:59:52.071Z,42.11
2018-09-11T11:00:52.126Z,42.36
2018-09-11T11:01:52.180Z,42.28
2018-09-11T11:02:52.234Z,41.71
2018-09-11T11:03:52.290Z,42.27
2018-09-11T11:04:52.345Z,41.99
2018-09-11T11:05:52.399Z,42.46
2018-09-11T11:06:52.454Z,43.25
2018-09-11T11:07:52.509Z,43.54
2018-09-11T11:08:52.568Z,42.98
2018-09-11T11:09:52.619Z,43.72
2018-09-11T11:10:52.675Z,42.50
2018-09-11T11:11:52.729Z,43.37
2018-09-11T11:12:52.804Z,43.53
2018-09-11T11:13:52.862Z,44.46
2018-09-11T11:14:52.895Z,44.44
2018-09-11T11:15:52.951Z,44.80
2018-09-11T11:16:53.010Z,44.86
2018-09-11T11:17:53.061Z,44.97
2018-09-11T11:19:53.173Z,44.50
2018-09-11T11:20:53.229Z,45.14
2018-09-11T11:21:53.516Z,44.75
2018-09-11T11:22:53.342Z,45.33
2018-09-11T11:23:53.419Z,44.79
2018-09-11T11:25:53.510Z,45.19
2018-09-11T11:26:53.611Z,45.50
2018-09-11T11:31:54.048Z,45.20
2018-09-11T11:32:53.902Z,45.12
2018-09-11T11:33:53.957Z,45.81
2018-09-11T11:34:54.014Z,45.57
2018-09-11T11:35:54.084Z,45.54
2018-09-11T11:36:54.326Z,45.24
2018-09-11T11:37:56.806Z,43.73
2018-09-11T11:38:54.241Z,44.03
2018-09-11T11:39:54.295Z,44.55
2018-09-11T11:40:54.352Z,44.22
2018-09-11T11:41:54.427Z,43.94
2018-09-11T11:42:54.535Z,44.78
2018-09-11T11:43:54.521Z,45.54
2018-09-11T11:44:54.577Z,45.29
2018-09-11T11:45:57.254Z,44.80
2018-09-11T11:46:54.694Z,44.76
2018-09-11T11:47:54.747Z,44.05
2018-09-11T11:48:54.806Z,43.64
2018-09-11T11:49:54.859Z,41.89
2018-09-11T11:50:54.918Z,42.52
2018-09-11T11:51:54.974Z,43.40
2018-09-11T11:52:55.031Z,43.54
2018-09-11T11:53:55.087Z,43.64
2018-09-11T11:54:55.185Z,43.25
2018-09-11T11:55:55.201Z,43.49
2018-09-11T11:56:55.257Z,44.03
2018-09-11T11:57:55.313Z,45.26
2018-09-11T11:58:55.419Z,44.92
2018-09-11T11:59:55.426Z,45.50
2018-09-11T12:00:55.487Z,45.60
2018-09-11T12:01:55.579Z,44.02
2018-09-11T12:02:55.596Z,43.02
2018-09-11T12:03:55.655Z,42.83
2018-09-11T12:04:55.708Z,44.05
2018-09-11T12:05:55.765Z,44.37
2018-09-11T12:06:55.820Z,43.75
2018-09-11T12:07:55.947Z,44.47
2018-09-11T12:08:55.934Z,45.07
2018-09-11T12:09:55.990Z,43.50
2018-09-11T12:10:56.045Z,44.05
2018-09-11T12:11:56.106Z,44.14
2018-09-11T12:12:56.159Z,44.00
2018-09-11T12:13:56.216Z,44.19
2018-09-11T12:14:56.279Z,45.21
2018-09-11T12:15:56.328Z,45.57
2018-09-11T12:16:56.411Z,45.50
2018-09-11T12:17:56.440Z,44.58
2018-09-11T12:18:56.497Z,44.64
2018-09-11T12:19:56.553Z,45.38
2018-09-11T12:20:56.611Z,45.32
2018-09-11T12:21:56.670Z,45.21
2018-09-11T12:22:56.720Z,43.84
2018-09-11T12:23:56.777Z,42.40
2018-09-11T12:24:56.833Z,42.27
2018-09-11T12:25:56.889Z,42.57
2018-09-11T12:26:56.946Z,42.43
2018-09-11T12:27:57.001Z,44.00
2018-09-11T12:28:57.057Z,44.21
2018-09-11T12:29:57.112Z,44.36
2018-09-11T12:30:57.217Z,45.04
2018-09-11T12:31:57.224Z,45.23
2018-09-11T12:32:57.280Z,44.53
2018-09-11T12:33:57.335Z,45.36
2018-09-11T12:34:57.392Z,45.27
2018-09-11T12:35:57.449Z,45.45
2018-09-11T12:36:57.503Z,45.48
2018-09-11T12:37:57.560Z,45.55
2018-09-11T12:38:57.614Z,45.73
2018-09-11T12:39:57.671Z,45.76
2018-09-11T12:40:57.725Z,45.72
2018-09-11T12:41:57.781Z,45.20
2018-09-11T12:42:57.838Z,45.51
2018-09-11T12:43:57.895Z,45.47
2018-09-11T12:44:57.952Z,45.74
2018-09-11T12:45:58.162Z,45.84
2018-09-11T12:46:58.255Z,46.18
2018-09-11T12:47:58.652Z,45.80
2018-09-11T12:48:58.174Z,45.67
2018-09-11T12:49:58.226Z,44.90
2018-09-11T12:50:58.283Z,44.40
2018-09-11T12:51:58.338Z,44.12
2018-09-11T12:52:58.394Z,44.47
2018-09-11T12:53:58.449Z,45.01
2018-09-11T12:54:58.505Z,44.44
2018-09-11T12:55:58.560Z,44.88
2018-09-11T12:56:58.616Z,44.85
2018-09-11T12:57:58.669Z,44.76
2018-09-11T12:58:58.726Z,45.66
2018-09-11T12:59:58.781Z,44.94
2018-09-11T13:00:58.837Z,43.54
2018-09-11T13:01:58.892Z,44.05
2018-09-11T13:02:58.958Z,43.69
2018-09-11T13:03:59.008Z,43.42